Time;durP1;ratioP1;P1;durP2;ratioP2;P2;SDS_P1;SDS_P2;PMS_P1;PMS_P2;Temp;Humidity;BMP_temperature;BMP_pressure;BME280_temperature;BME280_humidity;BME280_pressure;Samples;Min_cycle;Max_cycle;Signal;HPM_P1;HPM_P2
2022/05/29 00:01:17;;;;;;;11.70;8.52;;;;;;;;;;4951241;29;20027;-77
2022/05/29 00:03:43;;;;;;;10.77;8.25;;;;;;;;;;4944817;29;20032;-75
2022/05/29 00:06:10;;;;;;;11.90;8.63;;;;;;;;;;4944346;29;20030;-76
2022/05/29 00:08:39;;;;;;;12.50;8.85;;;;;;;;;;4942569;29;20082;-76
2022/05/29 00:11:05;;;;;;;10.25;8.73;;;;;;;;;;4949131;29;20042;-77
2022/05/29 00:13:32;;;;;;;12.27;9.07;;;;;;;;;;4959601;29;20473;-76
2022/05/29 00:15:58;;;;;;;13.27;7.93;;;;;;;;;;4957526;29;20386;-76
2022/05/29 00:18:27;;;;;;;11.45;7.70;;;;;;;;;;4943964;29;20027;-75
2022/05/29 00:20:57;;;;;;;11.10;7.68;;;;;;;;;;4949664;29;20023;-75
2022/05/29 00:23:24;;;;;;;12.82;8.10;;;;;;;;;;4960198;29;20025;-75
2022/05/29 00:25:52;;;;;;;12.00;8.43;;;;;;;;;;4961103;29;20125;-75
2022/05/29 00:28:18;;;;;;;12.75;8.95;;;;;;;;;;4946091;29;20095;-75
2022/05/29 00:30:45;;;;;;;10.55;8.40;;;;;;;;;;4969752;29;20034;-76
2022/05/29 00:33:12;;;;;;;12.95;7.68;;;;;;;;;;4943023;29;20067;-75
2022/05/29 00:35:39;;;;;;;11.05;7.90;;;;;;;;;;4959470;29;20034;-75
2022/05/29 00:38:07;;;;;;;9.95;8.27;;;;;;;;;;4957332;29;20031;-76
2022/05/29 00:40:38;;;;;;;10.23;7.10;;;;;;;;;;4959347;29;20110;-76
2022/05/29 00:43:06;;;;;;;10.75;7.38;;;;;;;;;;4966499;28;20046;-76
2022/05/29 00:45:41;;;;;;;11.40;7.93;;;;;;;;;;4960512;29;20038;-76
2022/05/29 00:48:15;;;;;;;13.23;7.93;;;;;;;;;;4964377;29;20047;-77
2022/05/29 00:50:59;;;;;;;12.45;7.85;;;;;;;;;;4951189;29;20039;-76
2022/05/29 00:53:27;;;;;;;11.90;7.57;;;;;;;;;;4939892;29;20032;-76
2022/05/29 00:56:13;;;;;;;11.27;8.50;;;;;;;;;;4950063;29;20023;-76
2022/05/29 00:58:39;;;;;;;11.75;8.90;;;;;;;;;;4954179;29;20035;-76
2022/05/29 01:01:06;;;;;;;12.02;8.20;;;;;;;;;;4960357;29;20028;-76
2022/05/29 01:03:36;;;;;;;12.38;8.30;;;;;;;;;;4961807;29;20030;-76
2022/05/29 01:06:02;;;;;;;10.38;7.80;;;;;;;;;;4962382;28;20031;-76
2022/05/29 01:08:30;;;;;;;10.50;7.80;;;;;;;;;;4977498;28;20065;-76
2022/05/29 01:11:02;;;;;;;12.43;8.30;;;;;;;;;;4946160;28;20511;-75
2022/05/29 01:13:47;;;;;;;9.10;7.35;;;;;;;;;;4952152;29;20088;-76
2022/05/29 01:16:32;;;;;;;12.20;7.20;;;;;;;;;;4954612;29;20033;-76
2022/05/29 01:19:01;;;;;;;10.02;6.82;;;;;;;;;;4957737;29;20038;-76
2022/05/29 01:21:28;;;;;;;14.68;7.38;;;;;;;;;;4945339;29;20031;-77
2022/05/29 01:24:00;;;;;;;9.38;7.40;;;;;;;;;;4948197;29;20050;-75
2022/05/29 01:26:32;;;;;;;8.75;7.43;;;;;;;;;;4947164;29;20111;-75
2022/05/29 01:29:00;;;;;;;10.20;7.45;;;;;;;;;;4950170;29;20113;-77
2022/05/29 01:31:30;;;;;;;12.13;7.88;;;;;;;;;;4965708;29;20055;-77
2022/05/29 01:33:56;;;;;;;12.38;7.28;;;;;;;;;;4958595;29;20043;-75
2022/05/29 01:36:43;;;;;;;13.57;7.07;;;;;;;;;;4957089;29;20035;-75
2022/05/29 01:39:27;;;;;;;9.73;6.65;;;;;;;;;;4958496;29;20042;-75
2022/05/29 01:41:58;;;;;;;9.55;6.57;;;;;;;;;;4956353;29;20108;-75
2022/05/29 01:44:32;;;;;;;9.27;6.25;;;;;;;;;;4956071;29;20023;-76
2022/05/29 01:47:05;;;;;;;8.50;5.97;;;;;;;;;;4938038;29;20513;-77
2022/05/29 01:49:40;;;;;;;7.82;6.05;;;;;;;;;;4942499;29;20111;-76
2022/05/29 01:52:17;;;;;;;12.23;6.18;;;;;;;;;;4959357;29;20031;-76
2022/05/29 01:54:46;;;;;;;12.43;5.88;;;;;;;;;;4951915;28;20030;-76
2022/05/29 01:57:18;;;;;;;7.68;6.18;;;;;;;;;;4945765;29;20112;-76
2022/05/29 01:59:46;;;;;;;8.88;6.30;;;;;;;;;;4945196;29;20355;-76
2022/05/29 02:02:17;;;;;;;8.75;6.38;;;;;;;;;;4930782;29;20527;-76
2022/05/29 02:04:47;;;;;;;11.50;6.43;;;;;;;;;;4945543;29;20035;-75
2022/05/29 02:10:07;;;;;;;10.98;6.47;;;;;;;;;;4949428;29;20047;-76
2022/05/29 02:12:34;;;;;;;9.00;6.38;;;;;;;;;;4958129;29;20035;-76
2022/05/29 02:15:05;;;;;;;10.65;7.10;;;;;;;;;;4958189;29;20030;-76
2022/05/29 02:17:48;;;;;;;10.43;7.68;;;;;;;;;;4933294;29;20035;-75
2022/05/29 02:20:18;;;;;;;10.50;7.55;;;;;;;;;;4932415;29;20042;-76
2022/05/29 02:22:44;;;;;;;13.13;8.13;;;;;;;;;;4945471;29;20032;-76
2022/05/29 02:25:18;;;;;;;11.80;7.60;;;;;;;;;;4963702;29;20097;-77
2022/05/29 02:27:56;;;;;;;11.65;7.53;;;;;;;;;;4925518;29;20552;-76
2022/05/29 02:30:24;;;;;;;11.55;7.78;;;;;;;;;;4951661;29;20041;-76
2022/05/29 02:32:57;;;;;;;13.93;7.15;;;;;;;;;;4961969;29;20103;-76
2022/05/29 02:35:27;;;;;;;9.00;6.97;;;;;;;;;;4961138;29;20035;-75
2022/05/29 02:37:55;;;;;;;8.98;7.53;;;;;;;;;;4960932;29;20035;-76
2022/05/29 02:40:21;;;;;;;10.30;7.50;;;;;;;;;;4959025;29;20552;-76
2022/05/29 02:42:52;;;;;;;11.27;7.45;;;;;;;;;;4960826;29;20114;-76
2022/05/29 02:45:31;;;;;;;10.88;7.65;;;;;;;;;;4968879;29;20039;-76
2022/05/29 02:48:02;;;;;;;16.92;8.18;;;;;;;;;;4950904;29;20024;-76
2022/05/29 02:50:47;;;;;;;13.07;7.45;;;;;;;;;;4951674;29;20044;-75
2022/05/29 02:53:14;;;;;;;9.35;7.18;;;;;;;;;;4961999;29;20031;-76
2022/05/29 02:55:41;;;;;;;12.60;7.00;;;;;;;;;;4959758;29;20035;-75
2022/05/29 02:58:13;;;;;;;12.15;8.10;;;;;;;;;;4951750;29;20084;-76
2022/05/29 03:00:49;;;;;;;12.23;7.63;;;;;;;;;;4942436;29;20020;-76
2022/05/29 03:03:33;;;;;;;16.45;8.18;;;;;;;;;;4946160;29;20058;-76
2022/05/29 03:06:08;;;;;;;11.05;8.10;;;;;;;;;;4959349;28;20031;-76
2022/05/29 03:08:47;;;;;;;13.68;7.38;;;;;;;;;;4957821;29;20559;-76
2022/05/29 03:11:15;;;;;;;12.95;7.53;;;;;;;;;;4960806;29;20090;-76
2022/05/29 03:13:54;;;;;;;16.73;8.52;;;;;;;;;;4963240;29;20477;-76
2022/05/29 03:16:39;;;;;;;11.60;7.32;;;;;;;;;;4963294;29;20481;-76
2022/05/29 03:19:31;;;;;;;18.05;7.80;;;;;;;;;;4929375;29;20034;-76
2022/05/29 03:22:12;;;;;;;28.38;9.73;;;;;;;;;;4915709;29;20051;-76
2022/05/29 03:24:43;;;;;;;12.63;7.80;;;;;;;;;;4905205;29;20028;-76
2022/05/29 03:27:12;;;;;;;9.15;6.85;;;;;;;;;;4921505;29;20036;-76
2022/05/29 03:29:40;;;;;;;9.80;7.15;;;;;;;;;;4917100;29;20029;-76
2022/05/29 03:32:07;;;;;;;11.80;7.32;;;;;;;;;;4900464;29;20388;-77
2022/05/29 03:34:33;;;;;;;9.93;7.47;;;;;;;;;;4919143;29;20142;-76
2022/05/29 03:36:59;;;;;;;11.30;7.90;;;;;;;;;;4920966;29;20062;-76
2022/05/29 03:39:25;;;;;;;12.45;7.35;;;;;;;;;;4906372;29;20037;-76
2022/05/29 03:41:53;;;;;;;9.55;7.47;;;;;;;;;;4891757;29;20045;-76
2022/05/29 03:44:20;;;;;;;9.35;7.38;;;;;;;;;;4886922;29;20049;-76
2022/05/29 03:46:46;;;;;;;10.00;7.50;;;;;;;;;;4902678;29;20045;-76
2022/05/29 03:49:13;;;;;;;12.23;7.10;;;;;;;;;;4903231;29;20037;-76
2022/05/29 03:51:39;;;;;;;15.65;7.75;;;;;;;;;;4908824;29;20044;-76
2022/05/29 03:54:06;;;;;;;12.10;7.13;;;;;;;;;;4958947;29;20037;-76
2022/05/29 03:56:33;;;;;;;10.20;7.13;;;;;;;;;;4947567;29;20386;-76
2022/05/29 03:58:59;;;;;;;13.52;6.68;;;;;;;;;;4941424;29;20038;-76
2022/05/29 04:01:26;;;;;;;15.98;7.53;;;;;;;;;;4945120;29;20091;-76
2022/05/29 04:03:59;;;;;;;18.90;7.15;;;;;;;;;;4967556;29;20030;-76
2022/05/29 04:06:27;;;;;;;13.95;8.10;;;;;;;;;;4946201;29;20039;-75
2022/05/29 04:14:24;;;;;;;12.20;7.15;;;;;;;;;;4949451;29;20721;-75
2022/05/29 04:16:53;;;;;;;11.52;7.18;;;;;;;;;;4949747;29;20026;-75
2022/05/29 04:19:20;;;;;;;14.85;7.90;;;;;;;;;;4961207;28;20022;-76
2022/05/29 04:21:48;;;;;;;16.30;7.18;;;;;;;;;;4937616;29;20023;-75
2022/05/29 04:24:20;;;;;;;13.57;7.30;;;;;;;;;;4951802;29;20027;-76
2022/05/29 04:26:48;;;;;;;9.50;7.10;;;;;;;;;;4958956;29;20027;-76
2022/05/29 04:29:17;;;;;;;11.02;6.80;;;;;;;;;;4960167;29;20034;-76
2022/05/29 04:34:33;;;;;;;12.95;6.70;;;;;;;;;;4953932;28;20084;-76
2022/05/29 04:37:17;;;;;;;14.10;7.78;;;;;;;;;;4939956;29;20039;-78
2022/05/29 04:39:43;;;;;;;12.75;6.93;;;;;;;;;;4946969;29;20029;-76
2022/05/29 04:42:10;;;;;;;13.13;6.70;;;;;;;;;;4957998;29;20028;-76
2022/05/29 04:44:36;;;;;;;11.32;6.40;;;;;;;;;;4962730;28;20074;-75
2022/05/29 04:47:03;;;;;;;13.90;7.10;;;;;;;;;;4955269;28;20058;-77
2022/05/29 04:49:33;;;;;;;12.95;6.57;;;;;;;;;;4956971;28;20046;-77
2022/05/29 04:57:18;;;;;;;11.48;6.97;;;;;;;;;;5274343;23;20054;-77
2022/05/29 05:00:13;;;;;;;7.95;6.88;;;;;;;;;;4991133;28;20045;-75
2022/05/29 05:02:59;;;;;;;10.85;7.25;;;;;;;;;;4997201;23;20054;-74
2022/05/29 05:05:57;;;;;;;10.25;7.10;;;;;;;;;;4969129;28;20038;-77
2022/05/29 05:08:45;;;;;;;15.23;7.85;;;;;;;;;;4973285;28;20457;-77
2022/05/29 05:11:11;;;;;;;14.48;7.60;;;;;;;;;;4940518;28;20054;-71
2022/05/29 05:13:42;;;;;;;16.40;7.55;;;;;;;;;;4966748;28;20098;-75
2022/05/29 05:16:08;;;;;;;8.15;6.53;;;;;;;;;;4952705;29;20028;-76
2022/05/29 05:18:37;;;;;;;8.30;6.97;;;;;;;;;;4974339;28;20027;-74
2022/05/29 05:21:11;;;;;;;12.23;7.43;;;;;;;;;;4965670;28;20020;-78
2022/05/29 05:23:55;;;;;;;11.45;6.82;;;;;;;;;;4942827;28;20090;-76
2022/05/29 05:37:41;;;;;;;;;;;;;;;;;;;;;
2022/05/29 05:40:09;;;;;;;13.18;6.82;;;;;;;;;;4998333;28;20047;-74
2022/05/29 05:42:51;;;;;;;9.63;7.10;;;;;;;;;;4988769;28;20061;-77
2022/05/29 05:45:29;;;;;;;11.55;7.20;;;;;;;;;;4996321;28;20010;-77
2022/05/29 05:47:59;;;;;;;9.32;6.50;;;;;;;;;;4993746;28;20030;-77
2022/05/29 05:50:25;;;;;;;8.43;6.82;;;;;;;;;;5836887;23;20030;-76
2022/05/29 05:55:29;;;;;;;9.52;7.15;;;;;;;;;;5281326;23;20063;-75
2022/05/29 05:57:55;;;;;;;10.70;8.00;;;;;;;;;;4982468;28;20042;-75
2022/05/29 06:00:23;;;;;;;10.30;6.53;;;;;;;;;;4972083;28;20034;-73
2022/05/29 06:02:49;;;;;;;11.68;6.32;;;;;;;;;;4986519;28;20023;-75
2022/05/29 06:05:15;;;;;;;8.98;6.20;;;;;;;;;;4951582;28;20061;-74
2022/05/29 06:07:42;;;;;;;11.00;6.18;;;;;;;;;;4976151;28;20030;-76
2022/05/29 06:10:11;;;;;;;8.90;6.60;;;;;;;;;;4961610;28;20027;-75
2022/05/29 06:12:38;;;;;;;11.30;6.20;;;;;;;;;;4954821;28;20075;-72
2022/05/29 06:15:05;;;;;;;8.55;5.80;;;;;;;;;;4975917;28;20049;-74
2022/05/29 06:17:33;;;;;;;13.63;6.30;;;;;;;;;;4977528;28;20030;-74
2022/05/29 06:20:00;;;;;;;8.93;5.57;;;;;;;;;;4973633;28;20500;-74
2022/05/29 06:22:28;;;;;;;7.10;5.88;;;;;;;;;;4977933;28;20523;-74
2022/05/29 06:24:54;;;;;;;9.18;5.82;;;;;;;;;;4981118;28;20501;-72
2022/05/29 06:27:20;;;;;;;12.30;6.65;;;;;;;;;;4975470;28;20027;-74
2022/05/29 06:29:46;;;;;;;14.18;6.25;;;;;;;;;;4971100;28;20021;-72
2022/05/29 06:32:15;;;;;;;8.73;6.03;;;;;;;;;;4978202;28;20026;-73
2022/05/29 06:34:44;;;;;;;10.20;6.03;;;;;;;;;;4974742;28;20424;-73
2022/05/29 06:37:10;;;;;;;8.10;6.43;;;;;;;;;;4980959;28;20062;-74
2022/05/29 06:39:53;;;;;;;8.23;6.10;;;;;;;;;;4971674;28;20023;-71
2022/05/29 06:42:19;;;;;;;8.27;6.40;;;;;;;;;;4964903;28;20031;-71
2022/05/29 06:44:45;;;;;;;11.70;6.85;;;;;;;;;;4979963;28;20030;-75
2022/05/29 06:47:14;;;;;;;11.15;6.25;;;;;;;;;;4975582;28;20038;-70
2022/05/29 06:49:40;;;;;;;8.75;5.63;;;;;;;;;;4963460;28;20031;-70
2022/05/29 06:52:10;;;;;;;9.60;6.45;;;;;;;;;;4978442;28;20039;-71
2022/05/29 06:54:37;;;;;;;11.32;7.10;;;;;;;;;;4975146;28;20138;-73
2022/05/29 06:57:51;;;;;;;10.18;6.78;;;;;;;;;;4977297;28;20037;-76
2022/05/29 07:08:01;;;;;;;10.07;6.57;;;;;;;;;;4978548;28;20579;-70
2022/05/29 07:10:32;;;;;;;9.93;6.55;;;;;;;;;;4980572;28;20448;-73
2022/05/29 07:15:55;;;;;;;11.75;6.40;;;;;;;;;;5021003;23;20052;-72
2022/05/29 07:18:21;;;;;;;10.63;6.80;;;;;;;;;;4941186;29;20074;-76
2022/05/29 07:20:47;;;;;;;11.63;6.38;;;;;;;;;;4937593;29;20035;-76
2022/05/29 07:23:14;;;;;;;9.32;6.32;;;;;;;;;;4949529;29;20082;-76
2022/05/29 07:25:40;;;;;;;14.65;7.65;;;;;;;;;;4953591;29;20044;-73
2022/05/29 07:28:08;;;;;;;13.00;7.57;;;;;;;;;;4937190;29;20058;-77
2022/05/29 07:30:34;;;;;;;11.45;7.10;;;;;;;;;;4937479;29;20024;-75
2022/05/29 07:33:00;;;;;;;13.50;7.78;;;;;;;;;;4906145;29;20055;-76
2022/05/29 07:38:02;;;;;;;12.15;7.13;;;;;;;;;;5384989;23;20035;-76
2022/05/29 07:40:28;;;;;;;12.23;7.35;;;;;;;;;;4955377;29;20041;-73
2022/05/29 07:45:54;;;;;;;20.00;8.38;;;;;;;;;;4897025;29;20107;-77
2022/05/29 07:48:24;;;;;;;13.98;7.88;;;;;;;;;;4895951;29;20151;-74
2022/05/29 07:50:50;;;;;;;13.77;7.82;;;;;;;;;;4894663;29;20044;-73
2022/05/29 07:53:16;;;;;;;10.77;7.47;;;;;;;;;;4896206;29;20032;-75
2022/05/29 07:55:43;;;;;;;12.73;8.00;;;;;;;;;;4892794;29;20039;-74
2022/05/29 07:58:12;;;;;;;14.10;6.80;;;;;;;;;;4885220;29;20032;-76
2022/05/29 08:00:39;;;;;;;12.32;6.70;;;;;;;;;;4910498;29;20029;-73
2022/05/29 08:03:07;;;;;;;12.75;6.28;;;;;;;;;;4907677;29;20518;-79
2022/05/29 08:05:35;;;;;;;6.93;5.50;;;;;;;;;;4912891;29;20072;-77
2022/05/29 08:08:08;;;;;;;8.52;5.80;;;;;;;;;;4892101;29;20036;-77
2022/05/29 08:10:35;;;;;;;9.43;5.10;;;;;;;;;;5216663;23;20043;-76
2022/05/29 08:13:01;;;;;;;7.45;5.28;;;;;;;;;;4970039;28;20046;-74
2022/05/29 08:15:29;;;;;;;8.45;5.38;;;;;;;;;;4962789;28;20031;-77
2022/05/29 08:17:55;;;;;;;11.30;6.28;;;;;;;;;;4968930;28;20035;-75
2022/05/29 08:20:22;;;;;;;9.35;6.00;;;;;;;;;;4953400;28;20035;-75
2022/05/29 08:22:48;;;;;;;9.05;5.93;;;;;;;;;;4968449;28;20034;-74
2022/05/29 08:30:54;;;;;;;8.30;5.63;;;;;;;;;;4991972;28;20017;-78
2022/05/29 08:36:02;;;;;;;9.82;6.47;;;;;;;;;;5060818;23;20060;-75
2022/05/29 08:38:28;;;;;;;10.68;5.70;;;;;;;;;;4934029;29;20047;-74
2022/05/29 08:40:56;;;;;;;10.02;5.47;;;;;;;;;;4953353;29;20039;-75
2022/05/29 08:43:27;;;;;;;8.82;5.43;;;;;;;;;;4949922;29;20055;-75
2022/05/29 08:45:53;;;;;;;9.15;5.70;;;;;;;;;;4938420;29;20016;-76
2022/05/29 08:48:21;;;;;;;8.05;6.03;;;;;;;;;;4939169;29;20008;-75
2022/05/29 08:50:54;;;;;;;10.55;5.70;;;;;;;;;;4920769;29;20031;-75
2022/05/29 08:53:41;;;;;;;7.53;5.72;;;;;;;;;;4938147;29;20036;-76
2022/05/29 08:56:28;;;;;;;11.15;5.72;;;;;;;;;;4938100;29;20055;-75
2022/05/29 08:59:03;;;;;;;9.32;5.85;;;;;;;;;;4940966;29;20058;-75
2022/05/29 09:04:10;;;;;;;13.20;6.15;;;;;;;;;;5339699;23;20083;-75
2022/05/29 09:06:38;;;;;;;9.05;6.28;;;;;;;;;;4980636;28;20014;-75
2022/05/29 09:09:04;;;;;;;8.05;5.47;;;;;;;;;;4983517;28;20021;-75
2022/05/29 09:11:51;;;;;;;8.85;5.47;;;;;;;;;;4994593;28;20042;-75
2022/05/29 09:14:27;;;;;;;10.02;5.85;;;;;;;;;;4984675;28;20053;-75
2022/05/29 09:16:57;;;;;;;9.88;5.93;;;;;;;;;;4966456;29;20027;-75
2022/05/29 09:19:30;;;;;;;9.32;5.50;;;;;;;;;;4976537;28;20095;-75
2022/05/29 09:24:36;;;;;;;8.10;5.50;;;;;;;;;;5557860;23;20119;-74
2022/05/29 09:27:02;;;;;;;14.32;5.95;;;;;;;;;;4940457;29;20099;-74
2022/05/29 09:29:28;;;;;;;10.23;5.22;;;;;;;;;;4940322;29;20016;-74
2022/05/29 09:31:56;;;;;;;13.40;5.80;;;;;;;;;;5279123;23;20056;-75
2022/05/29 09:37:24;;;;;;;9.15;5.57;;;;;;;;;;5099468;23;20065;-74
2022/05/29 09:39:54;;;;;;;9.35;5.28;;;;;;;;;;4960382;23;20083;-74
2022/05/29 09:45:18;;;;;;;10.82;5.30;;;;;;;;;;5754417;23;19929;-74
2022/05/29 09:50:46;;;;;;;9.65;6.13;;;;;;;;;;5931475;23;20046;-75
2022/05/29 09:53:35;;;;;;;10.50;5.45;;;;;;;;;;4971992;28;20039;-75
2022/05/29 09:56:05;;;;;;;7.93;5.68;;;;;;;;;;4932028;29;20059;-75
2022/05/29 09:58:46;;;;;;;9.80;5.75;;;;;;;;;;4928465;29;20092;-74
2022/05/29 10:01:12;;;;;;;9.32;5.60;;;;;;;;;;4904471;29;20118;-74
2022/05/29 10:03:48;;;;;;;7.75;5.43;;;;;;;;;;4933479;29;20076;-75
2022/05/29 10:06:33;;;;;;;12.98;5.55;;;;;;;;;;4929310;29;20051;-75
2022/05/29 10:09:21;;;;;;;10.82;5.25;;;;;;;;;;4919037;29;20034;-74
2022/05/29 10:11:51;;;;;;;6.43;5.40;;;;;;;;;;5039137;23;20062;-75
2022/05/29 10:14:37;;;;;;;13.02;5.90;;;;;;;;;;4985134;28;20038;-74
2022/05/29 10:17:07;;;;;;;8.50;5.50;;;;;;;;;;4979450;28;20113;-74
2022/05/29 10:19:35;;;;;;;7.22;4.88;;;;;;;;;;4971962;28;20034;-74
2022/05/29 10:22:03;;;;;;;7.85;5.18;;;;;;;;;;4980640;28;20106;-74
2022/05/29 10:24:37;;;;;;;9.27;5.45;;;;;;;;;;4981637;28;20025;-74
2022/05/29 10:27:06;;;;;;;13.60;5.93;;;;;;;;;;4997827;28;20023;-74
2022/05/29 10:29:34;;;;;;;10.57;5.95;;;;;;;;;;4997825;28;20030;-74
2022/05/29 10:32:03;;;;;;;8.85;5.50;;;;;;;;;;5384019;23;20055;-75
2022/05/29 10:37:27;;;;;;;16.02;5.60;;;;;;;;;;5079179;23;20047;-74
2022/05/29 10:40:10;;;;;;;11.75;5.10;;;;;;;;;;4994235;28;20046;-75
2022/05/29 10:42:40;;;;;;;6.75;4.50;;;;;;;;;;4958902;28;20026;-74
2022/05/29 10:45:08;;;;;;;7.25;4.97;;;;;;;;;;4984821;28;20038;-74
2022/05/29 10:47:43;;;;;;;17.95;5.63;;;;;;;;;;4974952;28;20026;-74
2022/05/29 10:50:15;;;;;;;11.07;4.30;;;;;;;;;;4985281;28;20031;-75
2022/05/29 10:52:41;;;;;;;7.43;4.38;;;;;;;;;;4962999;28;20066;-75
2022/05/29 10:55:17;;;;;;;10.88;4.50;;;;;;;;;;4969715;28;20046;-75
2022/05/29 10:58:02;;;;;;;14.93;5.22;;;;;;;;;;4999899;28;20046;-75
2022/05/29 11:00:33;;;;;;;7.07;3.70;;;;;;;;;;4981785;28;20035;-75
2022/05/29 11:03:23;;;;;;;17.90;4.50;;;;;;;;;;4983228;28;20015;-75
2022/05/29 11:05:55;;;;;;;8.73;3.90;;;;;;;;;;4985352;28;20059;-74
2022/05/29 11:08:59;;;;;;;6.85;3.80;;;;;;;;;;4971984;29;20568;-75
2022/05/29 11:11:45;;;;;;;9.07;3.90;;;;;;;;;;5178310;23;20043;-74
2022/05/29 11:14:31;;;;;;;10.32;4.43;;;;;;;;;;4979584;28;20007;-74
2022/05/29 11:17:27;;;;;;;9.57;3.63;;;;;;;;;;4956144;29;20027;-74
2022/05/29 11:19:53;;;;;;;6.88;3.75;;;;;;;;;;4894068;29;20028;-74
2022/05/29 11:22:25;;;;;;;9.13;4.30;;;;;;;;;;4869070;29;20070;-74
2022/05/29 11:27:51;;;;;;;8.50;4.20;;;;;;;;;;5045548;23;20076;-76
2022/05/29 11:30:36;;;;;;;11.10;4.07;;;;;;;;;;5385424;23;20070;-75
2022/05/29 11:33:21;;;;;;;11.18;4.35;;;;;;;;;;4979712;28;20062;-75
2022/05/29 11:35:47;;;;;;;8.55;4.18;;;;;;;;;;4979632;28;20019;-75
2022/05/29 11:38:16;;;;;;;8.15;4.30;;;;;;;;;;4963657;29;20016;-75
2022/05/29 11:40:47;;;;;;;8.35;4.60;;;;;;;;;;4964131;28;20030;-80
2022/05/29 11:43:25;;;;;;;9.35;4.15;;;;;;;;;;4960700;29;20054;-74
2022/05/29 11:51:48;;;;;;;15.68;4.55;;;;;;;;;;4975100;29;20071;-74
2022/05/29 11:54:22;;;;;;;9.55;4.40;;;;;;;;;;4963272;29;20039;-75
2022/05/29 11:57:08;;;;;;;9.98;4.70;;;;;;;;;;4962183;29;20012;-74
2022/05/29 11:59:53;;;;;;;8.27;4.05;;;;;;;;;;4974927;29;20020;-75
2022/05/29 12:02:38;;;;;;;9.63;4.85;;;;;;;;;;4961262;29;20015;-74
2022/05/29 12:05:13;;;;;;;7.20;4.68;;;;;;;;;;5402370;23;20050;-75
2022/05/29 12:07:43;;;;;;;12.82;5.05;;;;;;;;;;4944447;29;20039;-74
2022/05/29 12:10:18;;;;;;;7.72;5.00;;;;;;;;;;4953859;29;20016;-75
2022/05/29 12:12:45;;;;;;;6.90;5.45;;;;;;;;;;5349058;23;20047;-74
2022/05/29 12:15:19;;;;;;;6.82;5.13;;;;;;;;;;4996477;28;20099;-75
2022/05/29 12:18:00;;;;;;;8.95;5.00;;;;;;;;;;4978785;28;20038;-74
2022/05/29 12:20:58;;;;;;;10.60;5.65;;;;;;;;;;4993519;28;20046;-74
2022/05/29 12:23:30;;;;;;;14.85;5.93;;;;;;;;;;4916018;29;20021;-75
2022/05/29 12:26:00;;;;;;;8.95;5.53;;;;;;;;;;4911087;29;20187;-73
2022/05/29 12:28:38;;;;;;;10.07;6.13;;;;;;;;;;4898635;29;20016;-74
2022/05/29 12:31:06;;;;;;;8.63;6.20;;;;;;;;;;4908830;29;20029;-74
2022/05/29 12:33:34;;;;;;;10.20;6.28;;;;;;;;;;4911650;29;20072;-76
2022/05/29 12:36:04;;;;;;;11.00;5.30;;;;;;;;;;4881768;29;20079;-76
2022/05/29 12:38:52;;;;;;;9.18;5.80;;;;;;;;;;4876949;29;20524;-75
2022/05/29 12:47:17;;;;;;;10.02;5.57;;;;;;;;;;5158714;23;20526;-76
2022/05/29 13:10:24;;;;;;;9.48;5.57;;;;;;;;;;5022176;23;20757;-77
2022/05/29 13:21:09;;;;;;;11.63;5.85;;;;;;;;;;4968292;28;20168;-75
2022/05/29 13:23:42;;;;;;;8.07;5.30;;;;;;;;;;4961630;29;20023;-77
2022/05/29 13:26:12;;;;;;;7.90;4.80;;;;;;;;;;4952645;28;20023;-75
2022/05/29 13:28:43;;;;;;;9.35;5.28;;;;;;;;;;4954665;29;20042;-77
2022/05/29 13:33:45;;;;;;;9.15;5.55;;;;;;;;;;5369305;23;20067;-74
2022/05/29 13:36:31;;;;;;;9.57;5.38;;;;;;;;;;4975189;28;20015;-76
2022/05/29 13:38:57;;;;;;;8.35;5.07;;;;;;;;;;4967200;28;20063;-72
2022/05/29 13:41:59;;;;;;;9.07;4.88;;;;;;;;;;4960726;29;20130;-75
2022/05/29 13:44:38;;;;;;;9.95;5.35;;;;;;;;;;4946661;29;20039;-75
2022/05/29 13:47:25;;;;;;;9.18;5.47;;;;;;;;;;4968576;28;20110;-75
2022/05/29 13:50:06;;;;;;;8.02;5.40;;;;;;;;;;4952357;29;20034;-76
2022/05/29 13:52:36;;;;;;;10.40;5.40;;;;;;;;;;4963865;29;20118;-74
2022/05/29 13:55:22;;;;;;;9.95;5.55;;;;;;;;;;4964796;28;20031;-74
2022/05/29 14:04:00;;;;;;;9.68;5.88;;;;;;;;;;4958796;29;20046;-74
2022/05/29 14:06:34;;;;;;;9.43;5.60;;;;;;;;;;4959522;28;20038;-75
2022/05/29 14:09:24;;;;;;;;;;;;;;;;;;;;;
2022/05/29 14:11:53;;;;;;;8.82;5.65;;;;;;;;;;4967538;28;20209;-76
2022/05/29 14:14:33;;;;;;;10.73;5.90;;;;;;;;;;4952473;29;20094;-76
2022/05/29 14:17:02;;;;;;;10.18;5.97;;;;;;;;;;4972950;28;20031;-77
2022/05/29 14:19:53;;;;;;;7.13;5.10;;;;;;;;;;4960106;29;20043;-77
2022/05/29 14:22:46;;;;;;;8.90;5.50;;;;;;;;;;4970178;29;20086;-74
2022/05/29 14:25:31;;;;;;;9.10;5.25;;;;;;;;;;4970224;28;20049;-76
2022/05/29 14:28:38;;;;;;;10.35;5.22;;;;;;;;;;4971235;29;20027;-76
2022/05/29 14:31:20;;;;;;;7.65;5.22;;;;;;;;;;4964970;28;20070;-75
2022/05/29 14:34:05;;;;;;;7.57;4.45;;;;;;;;;;4967652;28;20051;-79
2022/05/29 14:36:32;;;;;;;8.43;4.70;;;;;;;;;;4971427;29;20055;-78
2022/05/29 14:39:19;;;;;;;9.38;4.90;;;;;;;;;;4972718;28;20035;-76
2022/05/29 14:42:11;;;;;;;;;;;;;;;;;;;;;
2022/05/29 14:44:46;;;;;;;6.50;4.68;;;;;;;;;;4972477;28;20108;-77
2022/05/29 14:50:17;;;;;;;10.30;5.03;;;;;;;;;;4966138;28;20102;-77
2022/05/29 14:53:06;;;;;;;9.43;4.65;;;;;;;;;;4974858;28;20039;-77
2022/05/29 14:55:44;;;;;;;6.97;4.95;;;;;;;;;;4960044;28;20444;-77
2022/05/29 14:58:13;;;;;;;8.68;4.88;;;;;;;;;;4966803;29;20102;-77
2022/05/29 15:00:57;;;;;;;8.55;4.38;;;;;;;;;;4974686;28;20481;-77
2022/05/29 15:03:27;;;;;;;7.65;4.68;;;;;;;;;;4939035;29;20043;-76
2022/05/29 15:06:12;;;;;;;7.97;5.00;;;;;;;;;;4965768;28;20027;-76
2022/05/29 15:12:10;;;;;;;8.45;4.43;;;;;;;;;;4978244;28;20077;-79
2022/05/29 15:14:54;;;;;;;;;;;;;;;;;;4905554;29;20029;-75
2022/05/29 15:26:55;;;;;;;9.68;4.43;;;;;;;;;;4963158;29;20050;-79
2022/05/29 15:30:13;;;;;;;10.43;4.50;;;;;;;;;;4974366;28;20099;-76
2022/05/29 15:32:41;;;;;;;8.07;3.60;;;;;;;;;;4899066;29;20076;-78
2022/05/29 15:35:41;;;;;;;7.45;4.20;;;;;;;;;;4904865;29;20033;-74
2022/05/29 15:38:06;;;;;;;;;;;;;;;;;;4911955;29;20045;-72
2022/05/29 15:44:04;;;;;;;8.80;3.80;;;;;;;;;;4919540;29;20116;-72
2022/05/29 15:46:53;;;;;;;6.72;3.80;;;;;;;;;;4844327;29;20613;-71
2022/05/29 15:49:38;;;;;;;9.85;5.05;;;;;;;;;;4841251;29;20066;-77
2022/05/29 15:52:40;;;;;;;9.52;4.75;;;;;;;;;;4844177;29;20042;-72
2022/05/29 15:55:24;;;;;;;7.13;4.32;;;;;;;;;;4845484;29;20058;-72
2022/05/29 15:57:54;;;;;;;6.18;3.63;;;;;;;;;;4910388;23;20106;-78
2022/05/29 16:00:20;;;;;;;11.55;4.13;;;;;;;;;;4959413;29;20041;-70
2022/05/29 16:02:46;;;;;;;7.20;3.70;;;;;;;;;;5416900;23;20071;-73
2022/05/29 16:11:06;;;;;;;9.93;3.80;;;;;;;;;;5117717;23;20042;-73
2022/05/29 16:13:41;;;;;;;12.95;3.58;;;;;;;;;;4975040;28;20038;-72
2022/05/29 16:16:14;;;;;;;6.43;3.70;;;;;;;;;;5000337;28;20015;-73
2022/05/29 16:18:50;;;;;;;7.82;3.83;;;;;;;;;;4984055;28;20027;-71
2022/05/29 16:21:29;;;;;;;6.93;3.80;;;;;;;;;;5678083;23;20059;-72
2022/05/29 16:48:07;;;;;;;6.78;3.60;;;;;;;;;;5090368;27;20389;-93
2022/05/29 16:48:29;;;;;;;6.95;4.18;;;;;;;;;;5066102;28;20052;-80
2022/05/29 16:50:55;;;;;;;9.75;4.10;;;;;;;;;;5056010;28;20032;-84
2022/05/29 16:53:39;;;;;;;5.85;4.10;;;;;;;;;;5042796;28;20025;-87
2022/05/29 16:56:08;;;;;;;8.25;3.92;;;;;;;;;;5056908;28;20037;-76
2022/05/29 16:58:37;;;;;;;8.95;4.13;;;;;;;;;;5049493;28;20024;-92
2022/05/29 17:01:16;;;;;;;10.45;3.80;;;;;;;;;;5050281;28;20032;-83
2022/05/29 17:03:50;;;;;;;7.18;3.53;;;;;;;;;;5058663;28;20059;-89
2022/05/29 17:06:20;;;;;;;6.97;3.50;;;;;;;;;;5067235;28;20067;-90
2022/05/29 17:08:48;;;;;;;9.07;3.53;;;;;;;;;;5050655;28;20116;-88
2022/05/29 17:11:22;;;;;;;6.85;3.92;;;;;;;;;;5067282;28;20190;-90
2022/05/29 17:13:49;;;;;;;7.68;4.75;;;;;;;;;;5051797;28;20033;-79
2022/05/29 17:16:15;;;;;;;9.30;3.63;;;;;;;;;;5069098;28;20063;-78
2022/05/29 17:18:43;;;;;;;6.78;3.53;;;;;;;;;;5062456;28;20040;-75
2022/05/29 17:21:21;;;;;;;8.90;3.90;;;;;;;;;;5082427;28;20100;-78
2022/05/29 17:24:07;;;;;;;5.70;3.60;;;;;;;;;;5089782;28;20036;-77
2022/05/29 17:26:36;;;;;;;11.30;4.05;;;;;;;;;;5075065;28;20053;-76
2022/05/29 17:29:09;;;;;;;4.82;3.63;;;;;;;;;;5089153;28;20021;-76
2022/05/29 17:31:37;;;;;;;7.55;3.90;;;;;;;;;;5100740;28;20086;-77
2022/05/29 17:34:07;;;;;;;8.80;3.78;;;;;;;;;;5108501;28;20020;-75
2022/05/29 17:36:44;;;;;;;8.05;4.30;;;;;;;;;;5107921;28;20119;-74
2022/05/29 17:39:16;;;;;;;8.52;4.45;;;;;;;;;;5087709;28;20437;-75
2022/05/29 17:41:43;;;;;;;5.78;3.30;;;;;;;;;;5082648;28;20035;-77
2022/05/29 17:44:10;;;;;;;11.32;3.63;;;;;;;;;;5075892;28;20495;-75
2022/05/29 17:46:45;;;;;;;6.15;3.50;;;;;;;;;;5093704;28;20373;-77
2022/05/29 17:49:29;;;;;;;9.25;4.10;;;;;;;;;;5083375;28;20036;-75
2022/05/29 17:52:09;;;;;;;8.05;3.35;;;;;;;;;;5089493;28;20459;-79
2022/05/29 17:54:43;;;;;;;9.35;3.30;;;;;;;;;;5082650;28;20511;-74
2022/05/29 17:57:13;;;;;;;7.53;3.33;;;;;;;;;;5085594;28;20028;-76
2022/05/29 17:59:40;;;;;;;6.72;3.20;;;;;;;;;;5092302;28;20388;-74
2022/05/29 18:02:10;;;;;;;7.50;3.50;;;;;;;;;;5085839;28;20028;-82
2022/05/29 18:04:39;;;;;;;6.43;3.17;;;;;;;;;;5090831;28;20032;-75
2022/05/29 18:07:08;;;;;;;5.30;3.28;;;;;;;;;;5074391;28;20028;-74